RPUQ weather

Vigan Airport
Vigan City, Ilocos Sur Province, Philippines

Public forecast

Using degrees Celsius for public forecast. Weather courtesy of forecast.io.

Closest aviation weather report (METAR) to Vigan Airport

Closest report is Laoag International Airport, 38.7 nm (71.7 km) NNE. Retrieved 2019/12/09 18:00 UTC (1 minute ago):

RPLI 091800Z 07002KT 9999 FEW018 19/18 Q1013 NOSIG RMK A2991

Closest aviation forecast (TAF) to Vigan Airport

Closest forecast is Laoag International Airport, 38.7 nm (71.7 km) NNE. Retrieved 2019/12/09 18:00 UTC (1 minute ago):

TAF RPLI 091700Z 0918/1018 03008KT 9999 FEW018 SCT290 TEMPO 0918/0924 05007KT